Time;durP1;ratioP1;P1;durP2;ratioP2;P2;SDS_P1;SDS_P2;PMS_P1;PMS_P2;Temp;Humidity;BMP_temperature;BMP_pressure;BME280_temperature;BME280_humidity;BME280_pressure;Samples;Min_cycle;Max_cycle;Signal;HPM_P1;HPM_P2
2024/03/11 00:01:10;;;;;;;9.90;4.43;;;;;;;10.86;71.57;99415.53;5089546;28;20032;-67
2024/03/11 00:03:35;;;;;;;12.55;5.13;;;;;;;10.87;71.26;99417.84;5086323;28;20039;-67
2024/03/11 00:06:02;;;;;;;12.27;5.15;;;;;;;10.83;72.21;99408.22;5084747;28;20883;-67
2024/03/11 00:08:28;;;;;;;15.65;6.25;;;;;;;10.84;72.48;99410.53;5080612;28;20141;-67
2024/03/11 00:10:59;;;;;;;15.82;5.05;;;;;;;11.04;71.37;99429.75;5083677;28;20478;-67
2024/03/11 00:13:32;;;;;;;11.40;5.05;;;;;;;10.90;71.74;99413.59;5083321;28;20154;-67
2024/03/11 00:16:03;;;;;;;14.70;6.13;;;;;;;10.96;72.11;99413.97;5087737;28;20131;-67
2024/03/11 00:18:29;;;;;;;13.73;5.28;;;;;;;11.12;70.96;99419.72;5088149;28;20032;-67
2024/03/11 00:20:57;;;;;;;15.27;6.13;;;;;;;11.05;71.27;99427.81;5081938;28;20028;-67
2024/03/11 00:23:23;;;;;;;14.02;5.22;;;;;;;11.11;70.86;99434.34;5066782;28;20043;-67
2024/03/11 00:25:49;;;;;;;14.73;5.55;;;;;;;11.24;70.97;99422.00;5083400;28;20047;-68
2024/03/11 00:28:19;;;;;;;19.77;5.82;;;;;;;11.21;71.34;99439.72;5083439;28;20047;-67
2024/03/11 00:30:46;;;;;;;12.70;5.63;;;;;;;11.20;71.45;99434.72;5083457;28;20116;-67
2024/03/11 00:33:13;;;;;;;14.02;4.80;;;;;;;11.17;71.72;99438.19;5116554;27;20407;-67
2024/03/11 00:35:38;;;;;;;13.98;5.05;;;;;;;11.06;72.17;99434.72;5065702;28;20036;-67
2024/03/11 00:38:07;;;;;;;13.85;4.88;;;;;;;11.06;72.42;99437.44;5082056;28;20043;-67
2024/03/11 00:40:34;;;;;;;9.65;5.07;;;;;;;11.03;71.71;99433.59;5081471;28;20064;-67
2024/03/11 00:43:00;;;;;;;15.27;5.65;;;;;;;10.86;72.71;99435.16;5081115;28;20143;-67
2024/03/11 00:45:26;;;;;;;10.95;4.97;;;;;;;10.89;73.05;99437.09;5083786;28;20585;-67
2024/03/11 00:47:52;;;;;;;12.43;4.78;;;;;;;10.84;73.44;99439.38;5082504;28;20069;-67
2024/03/11 00:50:21;;;;;;;13.85;5.63;;;;;;;10.87;73.75;99425.94;5081369;28;20028;-67
2024/03/11 00:52:48;;;;;;;12.30;5.63;;;;;;;10.74;74.20;99424.75;5081831;28;20427;-67
2024/03/11 00:55:13;;;;;;;11.82;5.07;;;;;;;10.70;73.91;99421.31;5082537;28;20036;-67
2024/03/11 00:57:41;;;;;;;13.20;6.10;;;;;;;10.58;74.65;99429.00;5114518;27;20063;-67
2024/03/11 01:00:11;;;;;;;13.18;5.65;;;;;;;10.66;74.59;99428.63;5086323;28;20032;-67
2024/03/11 01:02:39;;;;;;;12.18;6.15;;;;;;;10.56;74.89;99421.31;5084904;28;20028;-67
2024/03/11 01:05:05;;;;;;;13.23;5.57;;;;;;;10.43;75.83;99424.78;5082711;28;20236;-67
2024/03/11 01:07:35;;;;;;;11.13;5.00;;;;;;;10.57;75.38;99417.47;5082899;28;20031;-67
2024/03/11 01:10:02;;;;;;;13.45;6.13;;;;;;;10.49;75.17;99415.91;5082293;28;20031;-67
2024/03/11 01:12:28;;;;;;;10.73;5.30;;;;;;;10.47;75.95;99420.91;5066328;28;20031;-67
2024/03/11 01:14:55;;;;;;;10.88;5.45;;;;;;;10.42;75.93;99421.31;5090973;28;20054;-67
2024/03/11 01:17:21;;;;;;;14.20;5.28;;;;;;;10.48;75.36;99430.53;5086773;28;20028;-67
2024/03/11 01:19:47;;;;;;;14.27;6.05;;;;;;;10.36;75.87;99422.84;5117165;27;20086;-67
2024/03/11 01:22:15;;;;;;;15.55;5.97;;;;;;;10.46;76.08;99421.31;5066236;28;20024;-67
2024/03/11 01:24:41;;;;;;;16.60;6.00;;;;;;;10.62;74.91;99419.00;5082543;28;20108;-67
2024/03/11 01:27:10;;;;;;;11.95;5.03;;;;;;;10.59;74.85;99419.75;5065231;28;20775;-67
2024/03/11 01:29:41;;;;;;;13.48;5.65;;;;;;;10.58;75.75;99420.94;5088109;28;20070;-67
2024/03/11 01:32:08;;;;;;;13.20;5.22;;;;;;;10.56;75.76;99421.31;5089002;28;20531;-67
2024/03/11 01:34:35;;;;;;;14.55;5.07;;;;;;;10.48;75.62;99422.47;5086541;28;20471;-67
2024/03/11 01:37:01;;;;;;;10.23;4.25;;;;;;;10.53;75.67;99422.06;5062077;28;20036;-67
2024/03/11 01:39:42;;;;;;;14.95;5.10;;;;;;;10.49;76.32;99415.16;5078155;28;20549;-67
2024/03/11 01:42:15;;;;;;;13.10;5.38;;;;;;;10.53;75.70;99415.94;5078839;28;20043;-67
2024/03/11 01:44:46;;;;;;;16.60;5.75;;;;;;;10.48;76.57;99409.00;5084774;28;20034;-67
2024/03/11 01:47:14;;;;;;;11.70;5.13;;;;;;;10.41;76.53;99416.31;5090581;28;20119;-67
2024/03/11 01:49:52;;;;;;;9.85;4.30;;;;;;;10.40;76.40;99398.63;5081972;28;20430;-67
2024/03/11 01:52:23;;;;;;;13.98;4.93;;;;;;;10.48;76.04;99398.25;5080245;28;20068;-67
2024/03/11 01:54:49;;;;;;;;;;;;;;;10.31;76.59;99390.94;5064735;28;20043;-67
2024/03/11 01:57:17;;;;;;;9.32;4.15;;;;;;;10.24;77.62;99396.31;5099134;28;19912;-67
2024/03/11 01:59:42;;;;;;;18.33;6.35;;;;;;;10.20;77.93;99394.78;5083208;28;20024;-67
2024/03/11 02:02:10;;;;;;;13.05;5.15;;;;;;;10.18;78.32;99386.31;5068832;28;20053;-67
2024/03/11 02:04:38;;;;;;;13.95;5.75;;;;;;;10.17;77.62;99388.22;5086762;28;20108;-67
2024/03/11 02:07:05;;;;;;;14.13;6.00;;;;;;;10.26;77.35;99391.31;5083039;28;20044;-67
2024/03/11 02:09:31;;;;;;;14.00;5.95;;;;;;;10.30;77.69;99394.03;5063827;28;20039;-68
2024/03/11 02:11:59;;;;;;;15.20;5.53;;;;;;;10.22;78.47;99398.59;5063295;28;20038;-67
2024/03/11 02:14:25;;;;;;;13.52;5.80;;;;;;;10.15;78.05;99390.53;5063860;28;20561;-67
2024/03/11 02:16:50;;;;;;;14.82;5.32;;;;;;;10.23;78.07;99381.31;5087998;28;20030;-67
2024/03/11 02:19:17;;;;;;;9.82;4.97;;;;;;;10.22;78.38;99379.03;5079718;28;20078;-67
2024/03/11 02:21:46;;;;;;;12.73;5.63;;;;;;;10.08;78.67;99378.97;5086201;28;20734;-67
2024/03/11 02:24:16;;;;;;;11.57;4.82;;;;;;;10.12;78.34;99375.19;5067374;28;20119;-67
2024/03/11 02:26:48;;;;;;;12.68;4.45;;;;;;;10.15;78.42;99366.31;5068460;28;21642;-67
2024/03/11 02:29:17;;;;;;;15.20;5.53;;;;;;;10.13;78.74;99363.25;5088414;28;20028;-67
2024/03/11 02:31:45;;;;;;;12.70;5.97;;;;;;;9.91;79.41;99367.03;5071750;28;20139;-67
2024/03/11 02:34:15;;;;;;;14.40;5.40;;;;;;;10.05;78.67;99361.66;5074201;28;20109;-67
2024/03/11 02:36:47;;;;;;;12.63;5.53;;;;;;;9.98;79.32;99362.44;5078662;28;20051;-67
2024/03/11 02:39:16;;;;;;;12.23;4.57;;;;;;;10.09;79.07;99373.19;5082439;28;21387;-67
2024/03/11 02:41:43;;;;;;;11.43;4.18;;;;;;;10.07;78.87;99364.75;5100135;27;20469;-67
2024/03/11 02:44:09;;;;;;;17.13;6.97;;;;;;;10.02;79.64;99360.53;5069649;28;20494;-67
2024/03/11 02:46:35;;;;;;;13.18;4.78;;;;;;;10.18;78.61;99357.47;5088444;28;20028;-67
2024/03/11 02:49:02;;;;;;;13.15;5.47;;;;;;;10.19;79.09;99360.94;5092415;28;20668;-67
2024/03/11 02:51:30;;;;;;;10.50;4.72;;;;;;;10.24;78.94;99365.97;5085629;28;20505;-67
2024/03/11 02:53:56;;;;;;;17.75;5.22;;;;;;;10.27;78.51;99365.97;5085828;28;20035;-67
2024/03/11 02:56:23;;;;;;;11.32;5.22;;;;;;;10.28;78.71;99359.41;5086453;28;20134;-67
2024/03/11 02:58:49;;;;;;;10.23;4.70;;;;;;;9.99;79.68;99372.03;5082869;28;20044;-67
2024/03/11 03:01:16;;;;;;;11.15;5.40;;;;;;;10.08;79.32;99366.28;5089748;28;20055;-67
2024/03/11 03:03:43;;;;;;;21.95;5.55;;;;;;;10.13;79.41;99363.25;5089710;28;20482;-67
2024/03/11 03:06:08;;;;;;;14.70;5.05;;;;;;;10.24;79.19;99363.28;5099625;27;20077;-67
2024/03/11 03:08:37;;;;;;;13.13;4.97;;;;;;;10.21;79.20;99367.50;5085245;28;20047;-67
2024/03/11 03:11:03;;;;;;;10.02;4.65;;;;;;;10.31;78.67;99364.03;5083104;28;20395;-67
2024/03/11 03:13:32;;;;;;;14.50;5.60;;;;;;;10.27;79.03;99368.66;5084403;28;20502;-67
2024/03/11 03:15:58;;;;;;;10.98;5.18;;;;;;;10.37;78.87;99367.88;5092891;28;20036;-67
2024/03/11 03:18:25;;;;;;;13.63;5.55;;;;;;;10.32;78.56;99378.22;5089847;28;20028;-67
2024/03/11 03:20:51;;;;;;;9.23;5.20;;;;;;;10.16;79.15;99375.94;5086712;28;20039;-67
2024/03/11 03:23:18;;;;;;;11.65;4.72;;;;;;;10.29;79.12;99376.31;5085822;28;20371;-67
2024/03/11 03:25:44;;;;;;;10.05;4.57;;;;;;;10.25;78.45;99375.56;5085652;28;20039;-67
2024/03/11 03:28:10;;;;;;;17.42;5.88;;;;;;;10.33;78.88;99375.19;5066608;28;20495;-67
2024/03/11 03:30:37;;;;;;;16.23;4.90;;;;;;;10.41;78.24;99374.03;5067859;28;20028;-67
2024/03/11 03:33:04;;;;;;;12.18;5.40;;;;;;;10.44;78.09;99370.56;5085520;28;20032;-67
2024/03/11 03:35:30;;;;;;;12.68;5.35;;;;;;;10.33;78.23;99369.03;5083665;28;20043;-67
2024/03/11 03:37:56;;;;;;;12.43;5.28;;;;;;;10.42;78.34;99369.41;5066704;28;20089;-67
2024/03/11 03:40:23;;;;;;;11.00;4.68;;;;;;;10.49;77.88;99361.34;5083842;28;20031;-67
2024/03/11 03:42:50;;;;;;;11.60;4.53;;;;;;;10.48;77.78;99359.78;5049965;28;20043;-67
2024/03/11 03:45:17;;;;;;;12.88;5.00;;;;;;;10.47;77.78;99363.66;5071843;28;20039;-67
2024/03/11 03:47:45;;;;;;;12.63;5.05;;;;;;;10.51;78.07;99362.47;5092635;28;20440;-67
2024/03/11 03:50:14;;;;;;;8.75;4.43;;;;;;;10.49;77.96;99355.97;5101258;27;20611;-67
2024/03/11 03:52:46;;;;;;;13.40;5.18;;;;;;;10.37;77.99;99359.81;5082744;28;20024;-67
2024/03/11 03:55:12;;;;;;;14.95;5.43;;;;;;;10.07;79.52;99348.59;5066367;28;20074;-67
2024/03/11 03:57:40;;;;;;;9.50;4.40;;;;;;;10.20;79.52;99339.03;5082445;28;20036;-67
2024/03/11 04:00:15;;;;;;;12.98;5.75;;;;;;;10.33;79.11;99326.75;5085702;28;20029;-67
2024/03/11 04:02:51;;;;;;;11.95;4.80;;;;;;;10.32;78.99;99327.88;5074666;28;20024;-67
2024/03/11 04:05:19;;;;;;;16.42;5.55;;;;;;;10.30;78.79;99324.81;5122378;27;20134;-67
2024/03/11 04:07:45;;;;;;;9.20;4.68;;;;;;;10.36;78.76;99331.34;5048996;28;20028;-67
2024/03/11 04:10:17;;;;;;;14.73;5.20;;;;;;;10.40;79.21;99336.72;5083257;28;20066;-67
2024/03/11 04:12:47;;;;;;;9.18;4.40;;;;;;;10.35;78.26;99337.13;5066887;28;20415;-67
2024/03/11 04:15:21;;;;;;;12.57;4.85;;;;;;;10.31;78.96;99352.50;5065674;28;20081;-67
2024/03/11 04:17:53;;;;;;;10.38;4.35;;;;;;;10.27;79.27;99349.81;5081727;28;20040;-67
2024/03/11 04:20:22;;;;;;;14.52;5.25;;;;;;;10.45;78.43;99350.56;5084466;28;20395;-67
2024/03/11 04:22:49;;;;;;;11.40;5.13;;;;;;;10.42;78.97;99335.19;5082036;28;20070;-68
2024/03/11 04:25:16;;;;;;;8.90;4.28;;;;;;;10.49;78.17;99343.25;5084635;28;20494;-67
2024/03/11 04:27:46;;;;;;;10.68;4.97;;;;;;;10.47;78.74;99358.25;5089158;28;20078;-68
2024/03/11 04:30:16;;;;;;;10.82;5.32;;;;;;;10.49;78.87;99361.34;5088275;28;20032;-67
2024/03/11 04:32:43;;;;;;;12.45;5.07;;;;;;;10.44;78.71;99362.50;5059182;28;20036;-68
2024/03/11 04:35:10;;;;;;;12.00;4.80;;;;;;;10.55;78.20;99355.16;5104576;27;20483;-68
2024/03/11 04:37:38;;;;;;;11.88;4.85;;;;;;;10.55;78.41;99365.19;5087125;28;20119;-68
2024/03/11 04:40:06;;;;;;;17.65;5.32;;;;;;;10.51;78.62;99364.41;5085214;28;20020;-67
2024/03/11 04:42:32;;;;;;;8.52;4.55;;;;;;;10.52;78.68;99376.72;5073854;28;20118;-67
2024/03/11 04:44:58;;;;;;;13.90;5.28;;;;;;;10.41;79.52;99371.34;5071069;28;20024;-67
2024/03/11 04:47:24;;;;;;;14.82;5.82;;;;;;;10.47;78.70;99363.66;5086369;28;20039;-67
2024/03/11 04:49:49;;;;;;;11.50;4.40;;;;;;;10.36;79.25;99363.63;5087641;28;20036;-69
2024/03/11 04:52:16;;;;;;;13.05;4.93;;;;;;;10.40;79.54;99372.47;5084603;28;20533;-68
2024/03/11 04:54:42;;;;;;;12.82;4.82;;;;;;;10.44;78.76;99357.09;5083281;28;20605;-67
2024/03/11 04:57:08;;;;;;;10.57;5.13;;;;;;;10.28;79.88;99366.72;5083043;28;20052;-67
2024/03/11 04:59:35;;;;;;;10.98;5.13;;;;;;;10.41;79.54;99379.41;5085242;28;20082;-67
2024/03/11 05:02:01;;;;;;;11.35;5.28;;;;;;;10.43;79.49;99376.34;5069918;28;20119;-67
2024/03/11 05:04:27;;;;;;;15.13;5.88;;;;;;;10.48;79.22;99365.94;5082447;28;20035;-67
2024/03/11 05:06:52;;;;;;;10.18;4.35;;;;;;;10.51;78.75;99367.84;5081992;28;20502;-67
2024/03/11 05:09:18;;;;;;;14.80;4.97;;;;;;;10.43;79.48;99368.25;5083076;28;20036;-67
2024/03/11 05:11:44;;;;;;;13.55;5.28;;;;;;;10.49;78.63;99364.78;5082679;28;20036;-67
2024/03/11 05:14:10;;;;;;;10.63;4.15;;;;;;;10.30;79.47;99370.56;5082679;28;20067;-67
2024/03/11 05:16:36;;;;;;;12.88;5.03;;;;;;;10.40;79.17;99369.00;5082554;28;20066;-68
2024/03/11 05:19:03;;;;;;;12.60;4.78;;;;;;;10.35;78.98;99356.72;5081297;28;20032;-67
2024/03/11 05:21:29;;;;;;;15.00;5.18;;;;;;;10.28;79.81;99361.34;5080762;28;20453;-67
2024/03/11 05:23:56;;;;;;;10.52;5.25;;;;;;;10.44;78.91;99372.47;5062896;28;20040;-67
2024/03/11 05:26:22;;;;;;;13.68;5.30;;;;;;;10.36;78.68;99374.41;5082251;28;20039;-67
2024/03/11 05:28:49;;;;;;;13.52;4.68;;;;;;;10.51;78.60;99377.88;5061015;28;20567;-67
2024/03/11 05:31:15;;;;;;;16.63;5.35;;;;;;;10.49;78.88;99378.25;5079549;28;20048;-67
2024/03/11 05:33:42;;;;;;;9.88;4.72;;;;;;;10.51;78.69;99383.25;5081216;28;20032;-67
2024/03/11 05:36:08;;;;;;;8.68;4.50;;;;;;;10.53;78.38;99389.78;5076985;28;20036;-67
2024/03/11 05:38:34;;;;;;;10.50;4.63;;;;;;;10.42;78.50;99390.94;5078349;28;20409;-67
2024/03/11 05:41:01;;;;;;;10.80;4.63;;;;;;;10.57;77.91;99398.63;5062104;28;20528;-67
2024/03/11 05:43:27;;;;;;;14.60;6.20;;;;;;;10.53;78.16;99394.41;5063691;28;20035;-67
2024/03/11 05:45:53;;;;;;;16.67;5.65;;;;;;;10.48;78.66;99394.78;5080695;28;20119;-67
2024/03/11 05:48:19;;;;;;;10.20;4.32;;;;;;;10.61;78.34;99398.63;5061728;28;20578;-67
2024/03/11 05:50:46;;;;;;;12.70;5.60;;;;;;;10.56;77.50;99405.19;5078770;28;21487;-67
2024/03/11 05:53:13;;;;;;;11.07;5.07;;;;;;;10.44;78.58;99400.16;5062918;28;20127;-67
2024/03/11 05:55:41;;;;;;;20.10;5.63;;;;;;;10.50;78.83;99404.03;5089356;28;20028;-67
2024/03/11 05:58:14;;;;;;;10.27;4.68;;;;;;;10.46;78.41;99407.84;5088135;28;20089;-67
2024/03/11 06:00:43;;;;;;;10.90;4.15;;;;;;;10.52;77.64;99409.00;5086844;28;20547;-67
2024/03/11 06:03:10;;;;;;;14.30;5.10;;;;;;;10.49;78.56;99402.47;5086538;28;20027;-67
2024/03/11 06:05:36;;;;;;;9.27;3.88;;;;;;;10.46;78.23;99408.63;5089346;28;20450;-67
2024/03/11 06:08:02;;;;;;;12.85;4.90;;;;;;;10.29;78.88;99409.38;5080141;28;20024;-67
2024/03/11 06:10:28;;;;;;;14.75;4.93;;;;;;;10.39;79.06;99416.72;5070202;28;20039;-67
2024/03/11 06:12:54;;;;;;;12.90;5.43;;;;;;;10.35;78.84;99405.16;5070044;28;20025;-67
2024/03/11 06:15:21;;;;;;;10.98;5.25;;;;;;;10.52;78.01;99409.78;5070594;28;20031;-67
2024/03/11 06:17:47;;;;;;;13.82;4.85;;;;;;;10.42;78.73;99397.09;5118706;27;20036;-67
2024/03/11 06:20:13;;;;;;;8.90;4.28;;;;;;;10.23;79.64;99407.44;5094452;28;20544;-67
2024/03/11 06:22:39;;;;;;;15.30;4.88;;;;;;;10.18;79.71;99397.81;5091833;28;20043;-67
2024/03/11 06:25:06;;;;;;;16.70;7.00;;;;;;;10.33;79.26;99404.78;5090510;28;20028;-67
2024/03/11 06:27:32;;;;;;;10.10;4.65;;;;;;;10.23;80.35;99405.53;5093365;28;20032;-67
2024/03/11 06:29:58;;;;;;;13.93;4.63;;;;;;;10.27;79.52;99409.00;5092557;28;20028;-67
2024/03/11 06:32:30;;;;;;;19.33;5.35;;;;;;;10.38;79.86;99404.38;5099555;28;20732;-67
2024/03/11 06:34:57;;;;;;;11.98;4.22;;;;;;;10.36;79.88;99411.28;5087975;28;20039;-67
2024/03/11 06:37:23;;;;;;;18.95;5.32;;;;;;;10.37;79.52;99418.25;5088442;28;20044;-67
2024/03/11 06:39:51;;;;;;;10.23;4.35;;;;;;;10.45;79.40;99420.53;5091547;28;20415;-67
2024/03/11 06:42:17;;;;;;;9.50;5.07;;;;;;;10.50;78.49;99417.47;5093942;28;20024;-67
2024/03/11 06:44:43;;;;;;;10.88;4.05;;;;;;;10.63;78.06;99417.84;5093521;28;21562;-67
2024/03/11 06:47:10;;;;;;;9.60;4.57;;;;;;;10.54;78.42;99429.00;5090836;28;20032;-68
2024/03/11 06:49:37;;;;;;;12.18;4.45;;;;;;;10.53;78.77;99418.63;5125494;27;20063;-68
2024/03/11 06:52:05;;;;;;;11.88;4.78;;;;;;;10.66;79.39;99419.78;5089988;28;20034;-67
2024/03/11 06:54:33;;;;;;;12.18;4.13;;;;;;;10.67;78.69;99416.69;5091466;28;20683;-67
2024/03/11 06:57:00;;;;;;;12.88;5.65;;;;;;;10.65;78.33;99410.94;5089776;28;20032;-67
2024/03/11 06:59:28;;;;;;;7.75;4.47;;;;;;;10.58;78.46;99424.41;5081462;28;20065;-67
2024/03/11 07:01:56;;;;;;;11.13;4.97;;;;;;;10.61;78.57;99420.94;5088025;28;20465;-67
2024/03/11 07:04:24;;;;;;;11.30;4.82;;;;;;;10.56;79.07;99426.72;5084722;28;20036;-67
2024/03/11 07:06:50;;;;;;;11.43;4.28;;;;;;;10.52;78.94;99425.16;5089100;28;20392;-67
2024/03/11 07:09:16;;;;;;;15.40;3.70;;;;;;;10.55;79.35;99419.78;5089591;28;20016;-67
2024/03/11 07:11:43;;;;;;;16.30;5.45;;;;;;;10.54;79.06;99410.16;5087572;28;20032;-67
2024/03/11 07:14:13;;;;;;;10.63;4.15;;;;;;;10.41;79.76;99405.56;5089371;28;20066;-67
2024/03/11 07:16:42;;;;;;;14.10;5.22;;;;;;;10.35;78.99;99421.31;5110804;27;20120;-67
2024/03/11 07:19:09;;;;;;;10.68;4.28;;;;;;;10.34;79.76;99414.38;5090542;28;20107;-67
2024/03/11 07:21:37;;;;;;;11.82;4.90;;;;;;;10.52;79.37;99425.94;5094286;28;20025;-67
2024/03/11 07:24:03;;;;;;;9.00;4.95;;;;;;;10.60;78.70;99432.88;5092149;28;20027;-67
2024/03/11 07:26:29;;;;;;;10.70;4.20;;;;;;;10.61;78.08;99431.69;5084893;28;20367;-67
2024/03/11 07:28:55;;;;;;;9.13;4.05;;;;;;;10.72;78.43;99440.53;5089501;28;20044;-67
2024/03/11 07:31:21;;;;;;;12.60;4.55;;;;;;;10.71;78.19;99436.31;5089289;28;20069;-67
2024/03/11 07:33:50;;;;;;;11.90;4.80;;;;;;;10.54;78.88;99439.00;5105112;27;20052;-67
2024/03/11 07:36:18;;;;;;;8.60;4.57;;;;;;;10.65;78.44;99445.94;5070999;28;20049;-67
2024/03/11 07:38:43;;;;;;;10.25;4.38;;;;;;;10.75;78.46;99433.63;5089256;28;20012;-67
2024/03/11 07:41:09;;;;;;;9.23;4.13;;;;;;;10.85;78.38;99443.63;5094105;28;20031;-67
2024/03/11 07:43:36;;;;;;;13.27;4.28;;;;;;;10.86;78.31;99453.22;5073858;28;20051;-68
2024/03/11 07:46:03;;;;;;;11.80;4.50;;;;;;;10.78;78.31;99449.03;5089548;28;20024;-67
2024/03/11 07:48:30;;;;;;;14.00;4.40;;;;;;;10.75;78.43;99447.06;5073563;28;20073;-68
2024/03/11 07:50:56;;;;;;;11.05;4.63;;;;;;;10.40;80.13;99445.16;5090769;28;20107;-67
2024/03/11 07:53:21;;;;;;;13.80;4.80;;;;;;;10.80;78.51;99446.72;5089998;28;20127;-67
2024/03/11 07:55:48;;;;;;;8.32;4.60;;;;;;;10.73;78.76;99446.69;5087789;28;20118;-67
2024/03/11 07:58:14;;;;;;;10.15;4.60;;;;;;;10.90;78.48;99451.31;5091100;28;20508;-68
2024/03/11 08:00:42;;;;;;;9.90;4.40;;;;;;;10.86;78.05;99461.31;5089826;28;20089;-68
2024/03/11 08:03:09;;;;;;;11.95;4.63;;;;;;;10.93;78.53;99465.94;5085524;28;20028;-68
2024/03/11 08:05:36;;;;;;;10.00;4.75;;;;;;;10.86;78.61;99456.69;5096011;28;20486;-67
2024/03/11 08:08:08;;;;;;;10.38;4.63;;;;;;;10.89;78.43;99464.03;5089928;28;20051;-68
2024/03/11 08:10:34;;;;;;;8.80;3.83;;;;;;;11.06;77.98;99470.53;5091365;28;20150;-67
2024/03/11 08:13:00;;;;;;;10.20;4.88;;;;;;;11.11;78.14;99472.06;5090858;28;20042;-68
2024/03/11 08:15:26;;;;;;;11.93;4.53;;;;;;;10.93;78.10;99482.88;5090667;28;20118;-68
2024/03/11 08:17:52;;;;;;;8.73;4.05;;;;;;;10.97;78.15;99488.25;5090686;28;20080;-67
2024/03/11 08:20:20;;;;;;;7.35;3.70;;;;;;;11.06;78.90;99480.53;5094036;28;20035;-68
2024/03/11 08:22:52;;;;;;;10.07;4.55;;;;;;;10.84;78.79;99491.31;5092520;28;20032;-67
2024/03/11 08:25:23;;;;;;;12.90;4.60;;;;;;;11.00;78.27;99499.00;5085967;28;20032;-67
2024/03/11 08:27:52;;;;;;;9.77;4.45;;;;;;;10.97;79.51;99494.41;5092401;28;20027;-68
2024/03/11 08:30:20;;;;;;;12.05;4.50;;;;;;;10.95;78.86;99490.56;5092032;28;20127;-68
2024/03/11 08:32:53;;;;;;;11.45;5.80;;;;;;;11.09;79.17;99498.63;5102428;27;20032;-68
2024/03/11 08:35:23;;;;;;;7.70;4.78;;;;;;;11.36;77.32;99511.28;5089385;28;20138;-68
2024/03/11 08:37:52;;;;;;;9.80;4.30;;;;;;;11.16;78.83;99509.41;5089466;28;20044;-68
2024/03/11 08:40:25;;;;;;;10.95;4.53;;;;;;;11.02;79.10;99514.78;5087938;28;20491;-68
2024/03/11 08:42:51;;;;;;;9.55;4.65;;;;;;;11.14;78.93;99527.88;5090956;28;20338;-68
2024/03/11 08:45:22;;;;;;;10.38;4.53;;;;;;;11.28;78.36;99517.09;5089945;28;20058;-68
2024/03/11 08:47:49;;;;;;;10.57;4.45;;;;;;;11.17;79.07;99525.16;5091470;28;20107;-68
2024/03/11 08:50:16;;;;;;;7.60;4.00;;;;;;;11.12;79.56;99522.09;5090135;28;20024;-68
2024/03/11 08:52:45;;;;;;;11.60;4.97;;;;;;;11.30;78.41;99520.16;5091227;28;20107;-68
2024/03/11 08:55:13;;;;;;;9.13;4.22;;;;;;;11.30;78.33;99512.09;5071143;28;20088;-68
2024/03/11 08:57:40;;;;;;;7.95;3.75;;;;;;;11.16;79.08;99510.16;5089272;28;20438;-68
2024/03/11 09:00:10;;;;;;;12.52;5.85;;;;;;;11.29;79.17;99515.91;5091556;28;20031;-68
2024/03/11 09:02:36;;;;;;;10.27;4.65;;;;;;;11.10;79.41;99517.09;5087638;28;20036;-68
2024/03/11 09:05:03;;;;;;;8.90;4.20;;;;;;;11.40;79.08;99532.88;5082157;28;20076;-68
2024/03/11 09:07:30;;;;;;;11.02;4.22;;;;;;;11.46;77.33;99526.69;5080610;28;20028;-68
2024/03/11 09:09:57;;;;;;;9.05;4.38;;;;;;;11.51;77.86;99530.91;5092507;28;20083;-68
2024/03/11 09:12:23;;;;;;;9.98;5.25;;;;;;;11.53;78.03;99521.28;5088087;28;20124;-68
2024/03/11 09:14:49;;;;;;;11.23;4.75;;;;;;;11.56;77.76;99530.50;5102981;27;20067;-68
2024/03/11 09:17:17;;;;;;;10.30;5.32;;;;;;;11.46;78.45;99531.28;5075791;28;20028;-68
2024/03/11 09:19:43;;;;;;;13.43;5.00;;;;;;;11.66;78.14;99527.84;5088070;28;20028;-68
2024/03/11 09:22:08;;;;;;;13.13;4.75;;;;;;;11.67;78.22;99520.53;5087009;28;20474;-68
2024/03/11 09:24:34;;;;;;;9.38;4.28;;;;;;;11.76;77.83;99524.34;5120749;27;20122;-68
2024/03/11 09:27:02;;;;;;;15.60;4.85;;;;;;;11.84;77.90;99532.41;5088882;28;20036;-68
2024/03/11 09:29:29;;;;;;;13.25;4.75;;;;;;;11.44;79.71;99530.94;5090898;28;20487;-68
2024/03/11 09:31:55;;;;;;;10.48;4.93;;;;;;;11.46;79.35;99528.59;5085336;28;20521;-68
2024/03/11 09:34:20;;;;;;;11.73;4.60;;;;;;;11.64;78.68;99523.94;5094457;28;20043;-68
2024/03/11 09:36:46;;;;;;;13.40;4.90;;;;;;;11.77;78.40;99533.19;5089717;28;20032;-68
2024/03/11 09:39:12;;;;;;;12.45;4.43;;;;;;;11.66;78.80;99533.22;5092011;28;20551;-68
2024/03/11 09:41:41;;;;;;;9.38;4.45;;;;;;;11.90;77.74;99530.84;5086665;28;20410;-67
2024/03/11 09:44:18;;;;;;;10.90;4.88;;;;;;;11.96;77.00;99540.06;5125062;27;20027;-68
2024/03/11 09:46:55;;;;;;;10.82;4.60;;;;;;;11.95;77.57;99543.91;5083873;28;20035;-68
2024/03/11 09:49:24;;;;;;;12.70;4.40;;;;;;;12.09;77.27;99546.56;5088616;28;20035;-68
2024/03/11 09:51:53;;;;;;;12.00;4.55;;;;;;;11.87;78.14;99548.56;5083707;28;20024;-68
2024/03/11 09:54:21;;;;;;;8.38;3.70;;;;;;;12.04;77.61;99552.38;5084953;28;20043;-68
2024/03/11 09:56:48;;;;;;;11.13;4.90;;;;;;;11.87;78.29;99545.88;5090967;28;20023;-68
2024/03/11 09:59:18;;;;;;;8.85;3.83;;;;;;;12.13;77.36;99548.09;5085010;28;20139;-68
2024/03/11 10:01:52;;;;;;;14.43;5.25;;;;;;;12.18;76.62;99550.38;5080252;28;20063;-68
2024/03/11 10:04:21;;;;;;;9.98;4.63;;;;;;;12.17;77.62;99556.97;5085726;28;20098;-68
2024/03/11 10:07:04;;;;;;;12.40;4.97;;;;;;;12.00;77.73;99555.06;5092567;28;20140;-68
2024/03/11 10:09:31;;;;;;;11.15;3.92;;;;;;;11.95;78.18;99558.19;5102415;28;20044;-68
2024/03/11 10:12:08;;;;;;;8.25;4.13;;;;;;;12.05;77.89;99556.59;5083486;28;20106;-68
2024/03/11 10:14:34;;;;;;;13.25;4.88;;;;;;;12.17;77.36;99564.28;5094138;28;20032;-68
2024/03/11 10:17:28;;;;;;;13.60;5.40;;;;;;;12.05;77.58;99567.41;5080080;28;20036;-68
2024/03/11 10:19:58;;;;;;;9.43;4.47;;;;;;;12.09;77.97;99562.75;5088678;28;20024;-68
2024/03/11 10:22:26;;;;;;;9.60;3.83;;;;;;;12.10;78.26;99565.06;5091685;28;20118;-68
2024/03/11 10:24:56;;;;;;;9.35;4.68;;;;;;;12.13;77.66;99569.69;5091071;28;20495;-68
2024/03/11 10:27:32;;;;;;;11.23;4.47;;;;;;;11.92;78.48;99569.75;5090997;28;20090;-68
2024/03/11 10:30:19;;;;;;;14.27;4.82;;;;;;;12.00;78.24;99571.25;5088300;28;20034;-68
2024/03/11 10:32:45;;;;;;;9.85;4.65;;;;;;;12.02;78.45;99562.78;5093016;28;20040;-68
2024/03/11 10:35:11;;;;;;;9.63;4.72;;;;;;;11.93;79.29;99575.91;5074455;28;20099;-68
2024/03/11 10:37:43;;;;;;;12.23;4.90;;;;;;;12.04;79.90;99568.56;5083713;28;20024;-68
2024/03/11 10:40:18;;;;;;;8.60;4.15;;;;;;;11.89;79.85;99575.94;5095717;28;20032;-68
2024/03/11 10:42:55;;;;;;;11.52;4.75;;;;;;;11.94;80.65;99577.47;5098083;28;20107;-68
2024/03/11 10:45:32;;;;;;;9.43;4.32;;;;;;;11.98;80.43;99589.78;5089132;28;20111;-68
2024/03/11 10:48:00;;;;;;;14.95;5.90;;;;;;;12.05;79.62;99595.16;5096095;28;20032;-68
2024/03/11 10:50:32;;;;;;;10.68;4.82;;;;;;;12.00;80.29;99592.84;5098254;28;20023;-68
2024/03/11 10:52:59;;;;;;;12.07;4.65;;;;;;;12.17;80.19;99594.75;5095532;28;20043;-68
2024/03/11 10:55:34;;;;;;;10.20;4.60;;;;;;;12.06;80.09;99590.53;5095596;28;20194;-68
2024/03/11 10:58:00;;;;;;;9.85;4.55;;;;;;;12.24;79.97;99602.81;5094235;28;20034;-68
2024/03/11 11:00:33;;;;;;;10.55;4.88;;;;;;;11.87;81.52;99605.22;5099264;28;20059;-68
2024/03/11 11:03:08;;;;;;;10.50;4.70;;;;;;;12.03;81.41;99607.50;5089554;28;20031;-68
2024/03/11 11:05:55;;;;;;;15.57;5.30;;;;;;;12.07;81.76;99597.47;5095248;28;20032;-68
2024/03/11 11:08:30;;;;;;;11.90;5.43;;;;;;;12.02;82.16;99595.94;5123375;27;20115;-68
2024/03/11 11:11:01;;;;;;;14.32;6.10;;;;;;;12.22;82.25;99602.44;5093151;28;20044;-68
2024/03/11 11:13:29;;;;;;;11.38;5.55;;;;;;;12.14;83.11;99600.91;5091063;28;20028;-68
2024/03/11 11:15:58;;;;;;;13.90;5.75;;;;;;;12.16;83.59;99600.50;5096644;28;20031;-68
2024/03/11 11:18:26;;;;;;;10.23;5.35;;;;;;;12.24;83.13;99615.53;5087414;28;20173;-69
2024/03/11 11:20:52;;;;;;;11.65;5.28;;;;;;;12.14;83.49;99609.00;5092584;28;20115;-69
2024/03/11 11:23:29;;;;;;;18.38;5.53;;;;;;;12.28;82.71;99619.75;5095009;28;20102;-69
2024/03/11 11:25:56;;;;;;;13.20;5.38;;;;;;;12.21;83.96;99625.19;5089973;28;20172;-68
2024/03/11 11:28:37;;;;;;;16.27;5.63;;;;;;;12.17;84.99;99637.16;5075171;28;20047;-69
2024/03/11 11:31:15;;;;;;;13.60;5.40;;;;;;;12.14;85.55;99633.28;5072654;28;20039;-68